createdAt,value
2018-12-11T18:57:58.350Z,8.91
2018-12-11T19:02:13.871Z,7.89
2018-12-11T19:06:21.929Z,7.45
2018-12-11T19:10:32.778Z,7.22
2018-12-11T19:14:42.728Z,7.13
2018-12-11T19:18:50.267Z,7.09
2018-12-11T19:23:08.439Z,7.04
2018-12-11T19:27:15.058Z,6.93
2018-12-11T19:31:26.851Z,6.86
2018-12-11T19:35:43.059Z,6.80
2018-12-11T19:40:02.061Z,6.84
2018-12-11T19:44:19.366Z,6.68
2018-12-11T19:48:35.382Z,6.49
2018-12-11T19:52:47.658Z,6.23
2018-12-11T19:57:02.365Z,6.03
2018-12-11T20:01:14.438Z,5.90
2018-12-11T20:05:29.231Z,5.75
2018-12-11T20:09:39.310Z,5.62
2018-12-11T20:13:49.224Z,5.51
2018-12-11T20:17:59.388Z,5.39
2018-12-11T20:22:10.224Z,5.27
2018-12-11T20:26:21.030Z,5.17
2018-12-11T20:30:31.932Z,5.09
2018-12-11T20:34:41.827Z,5.01
2018-12-11T20:38:50.560Z,4.94
2018-12-11T20:43:02.469Z,4.88
2018-12-11T20:47:14.420Z,4.86
2018-12-11T20:51:23.689Z,4.79
2018-12-11T20:55:37.459Z,4.72
2018-12-11T20:59:51.111Z,4.64
2018-12-11T21:04:14.545Z,4.61
2018-12-11T21:08:29.164Z,4.56
2018-12-11T21:12:45.601Z,4.50
2018-12-11T21:16:57.392Z,4.45
2018-12-11T21:21:07.270Z,4.40
2018-12-11T21:25:15.485Z,4.36
2018-12-11T21:29:25.603Z,4.32
2018-12-11T21:33:34.578Z,4.28
2018-12-11T21:37:47.207Z,4.25
2018-12-11T21:42:01.542Z,4.22
2018-12-11T21:46:13.260Z,4.17
2018-12-11T21:50:29.506Z,4.11
2018-12-11T21:54:40.345Z,4.05
2018-12-11T21:58:51.011Z,3.98
2018-12-11T22:03:03.011Z,3.93
2018-12-11T22:07:17.668Z,3.86
2018-12-11T22:11:29.373Z,3.81
2018-12-11T22:15:38.422Z,3.75
2018-12-11T22:19:53.990Z,3.70
2018-12-11T22:24:09.156Z,3.65
2018-12-11T22:28:19.368Z,3.61
2018-12-11T22:32:36.570Z,3.58
2018-12-11T22:36:53.001Z,3.53
2018-12-11T22:41:10.052Z,3.47
2018-12-11T22:45:25.574Z,3.44
2018-12-11T22:49:39.112Z,3.37
2018-12-11T22:53:51.753Z,3.34
2018-12-11T22:58:06.190Z,3.32
2018-12-11T23:02:18.918Z,3.24
2018-12-11T23:06:35.244Z,3.22
2018-12-11T23:10:45.955Z,3.18
2018-12-11T23:14:57.808Z,3.09
2018-12-11T23:19:14.147Z,3.08
2018-12-11T23:23:25.926Z,3.07
2018-12-11T23:27:44.876Z,3.02
2018-12-11T23:32:01.097Z,2.98
2018-12-11T23:36:13.894Z,2.94
2018-12-11T23:40:27.619Z,2.85
2018-12-11T23:44:37.068Z,2.84
2018-12-11T23:48:46.186Z,2.83
2018-12-11T23:52:58.020Z,2.72
2018-12-11T23:57:06.927Z,2.69
